San Francisco, Colorado
Current Conditions -  °F | °C
As of 6:50 PM on Wednesday 26 Nov 2014 (Local Time) from KVTP Reporting Station
Clear Clear  
Wind Chill: 22°   Ceiling: Unl
Heat Index: 32°   Visibility: 10mi
Dew Point: 19°   Wind: 14mph
Humidity: 60%   Direction: 190°S
Pressure: 30.37"   Gusts: 23mph
Location:  37.1568°N, 105.289°W
Report Text: KVTP 270150Z AUTO 19012G20KT 160V220 10SM CLR 00/M07 A3037 RMK AO2
Loading
Personal Weather Stations






























Interactive Weather Map New forecast layout! Learn more

10-Day Weather Forecast

Advertisements
Track Severe Weather on mobile